EA1L
43.20.38N 005.51.13W
IN73BI aprs.fi
zuletzt gehoert:
2021-12-07T05:48:54Z
zuerst gehoert:
2020-02-10T14:56:39Z

APRS Oviedo [IN73BI], 0 Stunde(n), EA1L [07:06:14, 0s].
EA1L 43.20.38N 005.51.13WIN73BI 0.312km 344°NNW05:48:54ZWind 000°/000kn, Böen bis 000kn, Temp 12.22c, Regen 0.0mm, letzte 24h 0.0mm, seit 0h 0.0mm, Baro 1011.3h, Hum: 0%(3EA1L-13)
ea1l@ure.es V=13.6V,T=??.?C(2EA1L)
EA1HWX 43.19.29N 005.50.96WIN73BH 1.744km 175°S06:02:15ZDMO - UHF 439.7250/431.0000 CC11
33D00 43.21.63N 005.51.13WIN73BI 2.599km 358°N06:03:29Z33-D-00 Protección Civil REMER / Delegación del Gobierno en Asturias
EA1YR 43.22.09N 005.51.86WIN73BI 3.629km 343°NNW06:03:50ZMMDVM DVS 434.3500/434.3500 CC1
LEHU 43.22.63N 005.49.57WIN73CJ 4.887km 24°NNE06:00:49ZHelipuerto del HUCA: LEAS 070500Z 22005KT CAVOK 12/10 Q1013 NOSIG=
ED1ZAU 43.23.04N 005.52.75WIN73BJ 5.682km 337°NNW06:04:38ZRD625 438.5000/430.9000 CC1
EA1ABW 43.24.77N 005.47.77WIN73CJ 9.533km 28°NNE06:03:29ZMMDVM MMDVM HS Hat 439.8250/439.8250 CC1
LEMR 43.25.83N 005.49.60WIN73CK 10.567km 11°N06:00:50ZAerodromo de la Morgal: LEAS 070500Z 22005KT CAVOK 12/10 Q1013 NOSIG=
LEGM 43.26.15N 005.49.84WIN73CK 11.117km N06:00:48ZHelipuerto de La Morgal: LEAS 070500Z 22005KT CAVOK 12/10 Q1013 NOSIG=
EA1IMW 43.14.36N 005.46.93WIN73CF 12.228km 153°SSE06:03:43ZGRUPO RADIO GALENA (GRG) 430.4500/430.4500 CC1
EA1IPU 43.26.21N 005.46.62WIN73CK 12.622km 28°NNE06:00:52ZMMDVM MMDVM HS Hat 439.8000/439.8000 CC1
EA1JBL 43.12.28N 005.47.42WIN73CE 15.510km 161°SSE06:03:33ZMMDVM DVMega 435.3000/435.3000 CC1
EB1DGC 43.12.60N 005.45.59WIN73CF 15.950km 152°SSE06:02:07ZMMDVM MMDVM HS Hat 433.4500/433.4500 CC1
EA1HWA 43.12.00N 005.47.40WIN73CE 16.033km 162°SSE06:03:12ZMMDVM MMDVM HS Hat 433.4500/433.4500 CC1
ED1ZAY 43.29.47N 005.56.54WIN73AL 18.659km 337°NNW06:04:38ZRD625 438.3000/430.7000 CC1
ED1ZAS 43.27.52N 005.40.17WIN73DL 19.959km 47°NE06:04:35ZRD985 438.2250/430.6250 CC1
EA1RCG 43.09.45N 005.49.78WIN73CD 20.028km 175°S06:03:31ZGRUPO RADIO GALENA (GRG) 430.4500/430.4500 CC1
EA1FLQ 43.22.00N 005.36.35WIN73EI 20.101km 81°E06:02:47ZMMDVM DVMega 439.9750/439.9750 CC1
ED1ZAE 43.27.99N 005.40.54WIN73DL 20.193km 45°NE05:58:44Z2m Voice 145.5875 -0.600 Mhz(3ED1ZAE-C)
400 M. PICO SAN MARTIN (GIJON) 13.4V,13.2C(2ED1ZAE-3)
EA1AHA 43.32.72N 005.54.38WIN73BN 23.588km 349°N06:03:06ZWind 180°/004kn, Böen bis 005kn, Temp 12.22c, Regen 0.0mm, letzte 24h 5.3mm, seit 0h 5.3mm, Baro 1014.0h, Hum: 83%(3EA1AHA-13)
EB1TK 43.32.22N 005.42.32WIN73DM 25.168km 28°NNE05:55:37ZWind 224°/004kn, Böen bis 005kn, Temp 10.56c, Regen 0.0mm, letzte 24h 5.3mm, seit 0h 5.3mm, Baro 1015.4h, Hum: 93%(3EB1TK-13)
EA1DZR 43.31.47N 005.40.00WIN73DM 25.607km 36°NE06:03:58ZMMDVM MMDVM HS Dual Hat 432.1000/432.1000 CC2
LEEL 43.32.98N 005.41.71WIN73DN 26.774km 28°NNE06:00:50ZHelipuerto de El Musel: LEAS 070500Z 22005KT CAVOK 12/10 Q1013 NOSIG=
EB1GEM 43.30.00N 005.36.07WIN73EM 27.139km 48°NE05:58:17ZWX3in1Plus2.0 U=13.3V,T=??.?C/??.?F(3EB1GEM-3)
EA1DHE 43.33.98N 005.58.57WIN73AN 27.420km 338°NNW06:04:11ZMMDVM DVS 434.3500/434.3500 CC1
ED1ZAD 43.07.90N 005.38.52WIN73ED 28.424km 143°SE06:01:12ZED1ZAD-3 APRS Digi/Igate(3ED1ZAD-3)
EA1HJA 43.28.10N 005.30.45WIN73FL 31.368km 62°ENE06:03:42Z IN73FL WX3IN1+ 2.0 - V=14.0V,TX TEMP=43.3C
IN73FL WX3IN1+ 2.0 - V=13.2V,TX TEMP=24.3C(2EA1HJA-2)
EA1FHR 43.28.72N 005.26.41WIN73GL 36.734km 64°ENE06:02:29ZMMDVM MMDVM HS Hat 439.1500/439.1500 CC1
EA1JAY 43.29.33N 005.26.78WIN73GL 36.807km 63°ENE06:00:53Z434.525MHz Nodo TETRA DMO(3EA1JAY-4)
EA1JAY(2EA1JAY-2)
EA1HWD 43.28.96N 005.26.30WIN73GL 37.071km 64°ENE06:02:10Z144.575FM Local frecuency VHF. 434.2500/434.2500 CC1
EC1KV 43.34.01N 006.16.01WIN63UN 42.153km 307°NW05:54:41Z VOLT.=14.5 V - TEMP.=??.? C(3EC1KV-1)
LETN 43.20.05N 006.22.69WIN63TI 42.619km 270°W06:00:50ZAerodromo de La Curiscada (Tineo): LEAS 070500Z 22005KT CAVOK 12/10 Q1013 NOSIG=

aprs.pl 5.0.011w DL3EL © 2006-2021 [1193723]